createdAt,value
2023-01-27T00:01:50.028Z,102814.22
2023-01-27T00:04:17.188Z,102814.81
2023-01-27T00:06:44.274Z,102808.63
2023-01-27T00:09:12.382Z,102806.44
2023-01-27T00:11:59.519Z,102801.66
2023-01-27T00:14:26.715Z,102805.03
2023-01-27T00:16:53.971Z,102808.44
2023-01-27T00:19:21.094Z,102799.16
2023-01-27T00:21:57.643Z,102795.25
2023-01-27T00:24:34.726Z,102806.19
2023-01-27T00:27:02.127Z,102801.41
2023-01-27T00:29:29.176Z,102794.94
2023-01-27T00:32:05.806Z,102792.72
2023-01-27T00:34:33.059Z,102794.69
2023-01-27T00:37:00.114Z,102792.72
2023-01-27T00:39:27.262Z,102786.53
2023-01-27T00:41:55.813Z,102790.19
2023-01-27T00:44:24.273Z,102789.34
2023-01-27T00:46:51.544Z,102782.03
2023-01-27T00:49:18.708Z,102782.28
2023-01-27T00:51:45.752Z,102773.88
2023-01-27T00:54:12.715Z,102772.41
2023-01-27T00:56:39.798Z,102774.66
2023-01-27T00:59:06.967Z,102776.63
2023-01-27T01:01:35.082Z,102772.97
2023-01-27T01:04:02.226Z,102772.91
2023-01-27T01:06:29.534Z,102761.09
2023-01-27T01:08:57.264Z,102766.72
2023-01-27T01:11:25.100Z,102761.38
2023-01-27T01:13:54.336Z,102757.97
2023-01-27T01:16:23.673Z,102762.41
2023-01-27T01:18:50.986Z,102759.31
2023-01-27T01:21:18.307Z,102759.84
2023-01-27T01:23:46.030Z,102757.56
2023-01-27T01:26:13.465Z,102758.63
2023-01-27T01:28:40.561Z,102745.69
2023-01-27T01:31:09.764Z,102751.84
2023-01-27T01:33:37.386Z,102751.78
2023-01-27T01:36:05.796Z,102747.81
2023-01-27T01:38:33.360Z,102749.19
2023-01-27T01:41:00.387Z,102740.19
2023-01-27T01:43:28.186Z,102749.72
2023-01-27T01:45:56.941Z,102746.91
2023-01-27T01:48:24.443Z,102740.44
2023-01-27T01:50:57.192Z,102751.09
2023-01-27T01:53:29.676Z,102750.50
2023-01-27T01:55:59.109Z,102744.03
2023-01-27T01:58:28.491Z,102738.44
2023-01-27T02:00:56.693Z,102741.00
2023-01-27T02:03:26.336Z,102734.78
2023-01-27T02:05:55.127Z,102738.97
2023-01-27T02:08:26.007Z,102732.19
2023-01-27T02:10:54.804Z,102733.84
2023-01-27T02:13:22.607Z,102734.31
2023-01-27T02:15:54.253Z,102730.34
2023-01-27T02:18:21.496Z,102719.09
2023-01-27T02:20:50.818Z,102722.16
2023-01-27T02:23:18.083Z,102729.16
2023-01-27T02:25:45.477Z,102730.28
2023-01-27T02:28:12.652Z,102731.34
2023-01-27T02:30:39.702Z,102734.41
2023-01-27T02:33:11.202Z,102726.50
2023-01-27T02:35:41.897Z,102729.81
2023-01-27T02:38:09.726Z,102726.44
2023-01-27T02:40:37.307Z,102718.81
2023-01-27T02:43:05.371Z,102722.72
2023-01-27T02:45:32.329Z,102720.69
2023-01-27T02:47:59.322Z,102719.25
2023-01-27T02:50:26.513Z,102723.44
2023-01-27T02:52:53.596Z,102723.69
2023-01-27T02:55:20.615Z,102722.28
2023-01-27T02:57:48.635Z,102718.63
2023-01-27T03:00:15.829Z,102717.69
2023-01-27T03:02:42.939Z,102717.69
2023-01-27T03:05:09.936Z,102721.03
2023-01-27T03:07:36.903Z,102733.03
2023-01-27T03:10:04.549Z,102720.63
2023-01-27T03:12:31.836Z,102722.81
2023-01-27T03:15:10.128Z,102723.94
2023-01-27T03:17:47.901Z,102730.91
2023-01-27T03:20:15.167Z,102740.72
2023-01-27T03:22:42.282Z,102742.66
2023-01-27T03:25:09.543Z,102735.88
2023-01-27T03:27:36.961Z,102742.59
2023-01-27T03:30:04.425Z,102745.63
2023-01-27T03:32:31.977Z,102752.94
2023-01-27T03:34:59.231Z,102748.97
2023-01-27T03:37:36.948Z,102750.06
2023-01-27T03:40:14.220Z,102741.03
2023-01-27T03:42:51.067Z,102740.22
2023-01-27T03:45:27.521Z,102738.50
2023-01-27T03:47:54.658Z,102745.97
2023-01-27T03:50:38.120Z,102742.31
2023-01-27T03:53:05.953Z,102733.91
2023-01-27T03:55:34.023Z,102727.19
2023-01-27T03:58:10.901Z,102727.44
2023-01-27T04:00:38.528Z,102726.25
2023-01-27T04:03:14.668Z,102727.13
2023-01-27T04:05:51.727Z,102725.16
2023-01-27T04:08:18.637Z,102729.84
2023-01-27T04:11:05.550Z,102727.28
2023-01-27T04:13:32.652Z,102732.06
2023-01-27T04:15:59.882Z,102727.28
2023-01-27T04:18:26.858Z,102730.34
2023-01-27T04:20:53.997Z,102723.56
2023-01-27T04:23:21.405Z,102724.66
2023-01-27T04:25:50.270Z,102726.88
2023-01-27T04:28:25.665Z,102718.97
2023-01-27T04:31:00.917Z,102730.19
2023-01-27T04:33:28.046Z,102717.81
2023-01-27T04:35:55.008Z,102709.97
2023-01-27T04:38:22.556Z,102718.91
2023-01-27T04:40:49.592Z,102723.94
2023-01-27T04:43:16.494Z,102722.47
2023-01-27T04:45:43.503Z,102716.28
2023-01-27T04:48:10.606Z,102714.59
2023-01-27T04:50:37.691Z,102716.78
2023-01-27T04:53:04.711Z,102720.09
2023-01-27T04:55:31.747Z,102723.16
2023-01-27T04:57:58.782Z,102715.84
2023-01-27T05:00:25.897Z,102719.16
2023-01-27T05:02:52.624Z,102723.31
2023-01-27T05:05:19.761Z,102726.13
2023-01-27T05:07:46.578Z,102722.72
2023-01-27T05:10:13.787Z,102724.09
2023-01-27T05:12:40.687Z,102728.00
2023-01-27T05:15:08.114Z,102738.84
2023-01-27T05:17:35.027Z,102739.69
2023-01-27T05:20:02.299Z,102735.19
2023-01-27T05:22:29.076Z,102734.34
2023-01-27T05:24:55.843Z,102725.75
2023-01-27T05:27:22.677Z,102740.38
2023-01-27T05:29:49.374Z,102744.59
2023-01-27T05:32:16.127Z,102734.88
2023-01-27T05:34:42.823Z,102736.28
2023-01-27T05:37:09.738Z,102726.56
2023-01-27T05:39:36.604Z,102731.38
2023-01-27T05:42:03.853Z,102736.22
2023-01-27T05:44:30.671Z,102730.09
2023-01-27T05:46:57.440Z,102739.69
2023-01-27T05:49:24.226Z,102736.13
2023-01-27T05:51:50.951Z,102733.66
2023-01-27T05:54:17.711Z,102728.13
2023-01-27T05:56:44.901Z,102728.22
2023-01-27T05:59:11.736Z,102728.28
2023-01-27T06:01:39.183Z,102733.97
2023-01-27T06:04:06.277Z,102734.09
2023-01-27T06:06:33.893Z,102730.50
2023-01-27T06:09:00.999Z,102728.63
2023-01-27T06:11:28.102Z,102720.31
2023-01-27T06:13:55.326Z,102723.16
2023-01-27T06:16:22.599Z,102726.03
2023-01-27T06:18:49.491Z,102730.84
2023-01-27T06:21:20.761Z,102724.47
2023-01-27T06:23:48.274Z,102720.63
2023-01-27T06:26:16.650Z,102721.81
2023-01-27T06:28:43.815Z,102725.78
2023-01-27T06:31:12.731Z,102715.47
2023-01-27T06:33:40.053Z,102721.16
2023-01-27T06:36:08.722Z,102724.03
2023-01-27T06:38:35.668Z,102715.91
2023-01-27T06:41:02.699Z,102715.97
2023-01-27T06:43:29.999Z,102716.03
2023-01-27T06:45:58.258Z,102719.16
2023-01-27T06:48:25.648Z,102715.34
2023-01-27T06:50:54.291Z,102712.00
2023-01-27T06:53:21.205Z,102705.59
2023-01-27T06:55:48.946Z,102720.78
2023-01-27T06:58:16.119Z,102721.09
2023-01-27T07:00:43.226Z,102717.50
2023-01-27T07:03:11.872Z,102716.69
2023-01-27T07:05:39.657Z,102719.84
2023-01-27T07:08:06.444Z,102717.06
2023-01-27T07:10:33.345Z,102724.13
2023-01-27T07:13:09.852Z,102724.69
2023-01-27T07:15:36.950Z,102723.88
2023-01-27T07:18:04.319Z,102722.53
2023-01-27T07:20:31.864Z,102729.88
2023-01-27T07:22:59.810Z,102722.03
2023-01-27T07:25:27.075Z,102731.88
2023-01-27T07:27:54.191Z,102729.06
2023-01-27T07:30:20.988Z,102737.22
2023-01-27T07:32:48.037Z,102743.16
2023-01-27T07:35:16.096Z,102736.44
2023-01-27T07:37:42.876Z,102742.06
2023-01-27T07:40:10.660Z,102751.06
2023-01-27T07:42:37.542Z,102751.63
2023-01-27T07:45:04.676Z,102748.81
2023-01-27T07:47:31.607Z,102750.28
2023-01-27T07:49:58.872Z,102752.28
2023-01-27T07:52:25.807Z,102739.53
2023-01-27T07:54:52.715Z,102740.53
2023-01-27T07:57:19.629Z,102741.69
2023-01-27T07:59:46.656Z,102741.16
2023-01-27T08:02:13.796Z,102750.75
2023-01-27T08:04:52.506Z,102759.75
2023-01-27T08:07:20.606Z,102744.31
2023-01-27T08:09:47.432Z,102742.59
2023-01-27T08:12:14.655Z,102748.22
2023-01-27T08:14:41.629Z,102753.53
2023-01-27T08:17:08.681Z,102747.94
2023-01-27T08:19:35.729Z,102755.53
2023-01-27T08:22:02.909Z,102754.94
2023-01-27T08:24:30.152Z,102758.34
2023-01-27T08:26:57.109Z,102761.66
2023-01-27T08:29:24.190Z,102760.31
2023-01-27T08:31:51.061Z,102758.34
2023-01-27T08:34:17.897Z,102767.59
2023-01-27T08:36:44.967Z,102770.41
2023-01-27T08:39:12.398Z,102776.88
2023-01-27T08:41:39.436Z,102772.41
2023-01-27T08:44:07.387Z,102775.22
2023-01-27T08:46:34.336Z,102769.59
2023-01-27T08:49:01.585Z,102769.00
2023-01-27T08:51:29.182Z,102770.38
2023-01-27T08:53:56.245Z,102770.66
2023-01-27T08:56:23.497Z,102777.38
2023-01-27T08:58:52.678Z,102775.66
2023-01-27T09:01:20.399Z,102775.97
2023-01-27T09:03:47.635Z,102771.44
2023-01-27T09:06:14.950Z,102762.97
2023-01-27T09:08:42.203Z,102775.31
2023-01-27T09:11:10.548Z,102777.56
2023-01-27T09:13:37.575Z,102785.97
2023-01-27T09:16:04.728Z,102782.03
2023-01-27T09:18:31.720Z,102780.94
2023-01-27T09:20:58.602Z,102781.78
2023-01-27T09:23:25.751Z,102788.00
2023-01-27T09:25:52.637Z,102788.84
2023-01-27T09:28:19.581Z,102793.06
2023-01-27T09:30:46.988Z,102788.88
2023-01-27T09:33:18.177Z,102800.44
2023-01-27T09:35:47.610Z,102790.63
2023-01-27T09:38:17.199Z,102784.47
2023-01-27T09:41:01.396Z,102790.69
2023-01-27T09:43:37.756Z,102779.19
2023-01-27T09:46:15.450Z,102783.41
2023-01-27T09:48:51.727Z,102780.34
2023-01-27T09:51:20.228Z,102782.03
2023-01-27T09:53:56.882Z,102775.28
2023-01-27T09:56:23.958Z,102786.25
2023-01-27T09:59:00.775Z,102779.78
2023-01-27T10:01:34.537Z,102790.78
2023-01-27T10:04:02.641Z,102783.44
2023-01-27T10:06:29.720Z,102784.56
2023-01-27T10:08:57.772Z,102785.41
2023-01-27T10:11:25.904Z,102788.22
2023-01-27T10:13:54.057Z,102793.00
2023-01-27T10:16:28.514Z,102800.56
2023-01-27T10:19:04.653Z,102800.88
2023-01-27T10:21:41.338Z,102803.66
2023-01-27T10:24:08.663Z,102815.16
2023-01-27T10:26:36.326Z,102809.53
2023-01-27T10:29:09.037Z,102802.22
2023-01-27T10:31:45.758Z,102810.66
2023-01-27T10:34:19.010Z,102819.69
2023-01-27T10:36:53.658Z,102812.09
2023-01-27T10:39:36.085Z,102809.28
2023-01-27T10:42:18.506Z,102806.19
2023-01-27T10:44:53.737Z,102804.53
2023-01-27T10:47:35.056Z,102799.16
2023-01-27T10:50:07.811Z,102795.75
2023-01-27T10:52:34.801Z,102796.88
2023-01-27T10:55:06.005Z,102802.78
2023-01-27T10:57:37.326Z,102795.38
2023-01-27T11:00:49.201Z,102800.44
2023-01-27T11:02:59.209Z,102788.34
2023-01-27T11:05:30.520Z,102790.56
2023-01-27T11:08:00.420Z,102786.34
2023-01-27T11:10:31.181Z,102782.38
2023-01-27T11:12:59.076Z,102789.34
2023-01-27T11:15:28.783Z,102785.69
2023-01-27T11:17:59.915Z,102785.13
2023-01-27T11:20:35.532Z,102787.63
2023-01-27T11:23:05.111Z,102792.66
2023-01-27T11:25:41.786Z,102797.94
2023-01-27T11:28:17.794Z,102792.88
2023-01-27T11:30:53.980Z,102786.06
2023-01-27T11:33:26.277Z,102782.69
2023-01-27T11:35:54.586Z,102778.72
2023-01-27T11:38:22.900Z,102765.78
2023-01-27T11:40:52.081Z,102775.59
2023-01-27T11:43:20.199Z,102772.50
2023-01-27T11:45:48.373Z,102759.00
2023-01-27T11:48:17.386Z,102757.53
2023-01-27T11:50:45.257Z,102762.00
2023-01-27T11:53:15.221Z,102767.59
2023-01-27T11:55:44.287Z,102767.59
2023-01-27T11:58:19.201Z,102757.78
2023-01-27T12:00:48.536Z,102760.81
2023-01-27T12:03:21.535Z,102760.25
2023-01-27T12:05:52.941Z,102764.44
2023-01-27T12:08:29.678Z,102759.91
2023-01-27T12:11:04.767Z,102758.72
2023-01-27T12:13:31.818Z,102747.44
2023-01-27T12:16:02.053Z,102747.44
2023-01-27T12:18:32.765Z,102755.81
2023-01-27T12:21:00.763Z,102758.00
2023-01-27T12:23:30.133Z,102750.69
2023-01-27T12:25:59.410Z,102750.56
2023-01-27T12:28:35.790Z,102753.97
2023-01-27T12:31:06.779Z,102754.50
2023-01-27T12:33:34.876Z,102752.19
2023-01-27T12:36:05.003Z,102745.16
2023-01-27T12:38:36.694Z,102741.75
2023-01-27T12:41:05.959Z,102744.25
2023-01-27T12:43:49.967Z,102733.81
2023-01-27T12:46:27.153Z,102744.19
2023-01-27T12:49:00.946Z,102739.94
2023-01-27T12:51:41.801Z,102743.31
2023-01-27T12:54:16.548Z,102741.81
2023-01-27T12:56:43.686Z,102740.13
2023-01-27T12:59:14.458Z,102739.56
2023-01-27T13:01:42.189Z,102747.13
2023-01-27T13:04:12.786Z,102734.19
2023-01-27T13:06:43.814Z,102732.50
2023-01-27T13:09:24.317Z,102733.34
2023-01-27T13:11:51.797Z,102732.00
2023-01-27T13:14:19.298Z,102728.91
2023-01-27T13:16:54.713Z,102724.75
2023-01-27T13:19:26.538Z,102725.31
2023-01-27T13:21:55.636Z,102725.06
2023-01-27T13:24:32.158Z,102720.56
2023-01-27T13:27:01.184Z,102724.22
2023-01-27T13:29:32.223Z,102727.94
2023-01-27T13:31:59.319Z,102722.66
2023-01-27T13:34:35.702Z,102720.78
2023-01-27T13:37:02.954Z,102722.78
2023-01-27T13:39:39.737Z,102716.41
2023-01-27T13:42:19.300Z,102721.22
2023-01-27T13:44:49.660Z,102720.16
2023-01-27T13:47:21.480Z,102714.88
2023-01-27T13:49:50.803Z,102714.94
2023-01-27T13:52:18.002Z,102720.63
2023-01-27T13:54:44.815Z,102720.69
2023-01-27T13:57:26.306Z,102721.84
2023-01-27T14:00:02.694Z,102721.34
2023-01-27T14:02:38.801Z,102720.78
2023-01-27T14:05:07.165Z,102720.00
2023-01-27T14:07:41.625Z,102721.44
2023-01-27T14:10:15.930Z,102723.47
2023-01-27T14:12:52.934Z,102719.25
2023-01-27T14:15:30.317Z,102727.72
2023-01-27T14:17:58.920Z,102732.56
2023-01-27T14:20:31.884Z,102732.00
2023-01-27T14:23:00.006Z,102732.31
2023-01-27T14:25:36.702Z,102733.16
2023-01-27T14:28:10.204Z,102728.16
2023-01-27T14:30:42.013Z,102727.84
2023-01-27T14:33:17.878Z,102729.88
2023-01-27T14:35:49.568Z,102723.44
2023-01-27T14:38:22.492Z,102736.06
2023-01-27T14:40:56.757Z,102731.31
2023-01-27T14:43:24.841Z,102734.13
2023-01-27T14:45:56.458Z,102735.81
2023-01-27T14:48:30.667Z,102745.91
2023-01-27T14:51:04.931Z,102739.47
2023-01-27T14:53:35.251Z,102744.50
2023-01-27T14:56:07.505Z,102752.69
2023-01-27T14:58:34.798Z,102753.78
2023-01-27T15:01:09.022Z,102755.75
2023-01-27T15:03:46.360Z,102751.22
2023-01-27T15:06:17.577Z,102751.53
2023-01-27T15:08:44.837Z,102758.25
2023-01-27T15:11:22.057Z,102762.41
2023-01-27T15:14:00.069Z,102770.59
2023-01-27T15:16:27.200Z,102761.31
2023-01-27T15:18:55.387Z,102756.50
2023-01-27T15:21:31.643Z,102759.56
2023-01-27T15:24:07.676Z,102769.97
2023-01-27T15:26:36.199Z,102772.19
2023-01-27T15:29:03.769Z,102773.88
2023-01-27T15:31:31.672Z,102773.88
2023-01-27T15:34:07.791Z,102766.56
2023-01-27T15:36:35.160Z,102767.69
2023-01-27T15:39:09.330Z,102773.28
2023-01-27T15:41:37.104Z,102770.19
2023-01-27T15:44:06.166Z,102768.47
2023-01-27T15:46:35.386Z,102772.94
2023-01-27T15:49:05.462Z,102768.38
2023-01-27T15:51:35.656Z,102781.03
2023-01-27T15:54:03.435Z,102777.91
2023-01-27T15:56:39.842Z,102775.38
2023-01-27T15:59:08.948Z,102774.78
2023-01-27T16:01:36.758Z,102775.91
2023-01-27T16:04:06.046Z,102772.00
2023-01-27T16:06:33.285Z,102774.75
2023-01-27T16:09:01.880Z,102776.09
2023-01-27T16:11:29.399Z,102770.75
2023-01-27T16:14:05.627Z,102769.31
2023-01-27T16:16:33.319Z,102768.75
2023-01-27T16:19:03.856Z,102772.66
2023-01-27T16:21:39.288Z,102775.72
2023-01-27T16:24:12.690Z,102773.94
2023-01-27T16:26:45.989Z,102770.03
2023-01-27T16:29:13.164Z,102770.53
2023-01-27T16:31:42.303Z,102769.69
2023-01-27T16:34:18.140Z,102769.94
2023-01-27T16:36:45.364Z,102757.88
2023-01-27T16:39:21.565Z,102758.81
2023-01-27T16:41:57.067Z,102762.22
2023-01-27T16:44:28.783Z,102772.91
2023-01-27T16:47:05.025Z,102772.97
2023-01-27T16:49:41.648Z,102778.66
2023-01-27T16:52:16.825Z,102795.25
2023-01-27T16:54:45.273Z,102793.59
2023-01-27T16:57:21.739Z,102791.97
2023-01-27T16:59:50.649Z,102800.69
2023-01-27T17:02:21.395Z,102800.16
2023-01-27T17:04:52.810Z,102804.97
2023-01-27T17:07:19.957Z,102817.66
2023-01-27T17:09:51.102Z,102815.19
2023-01-27T17:12:28.877Z,102809.00
2023-01-27T17:14:56.363Z,102821.69
2023-01-27T17:17:24.160Z,102823.13
2023-01-27T17:19:52.340Z,102824.03
2023-01-27T17:22:23.858Z,102826.59
2023-01-27T17:24:53.519Z,102823.22
2023-01-27T17:27:20.619Z,102825.50
2023-01-27T17:29:49.023Z,102822.44
2023-01-27T17:32:23.308Z,102827.25
2023-01-27T17:34:53.169Z,102828.69
2023-01-27T17:37:21.600Z,102827.31
2023-01-27T17:39:52.238Z,102837.72
2023-01-27T17:42:20.699Z,102836.31
2023-01-27T17:44:48.143Z,102844.47
2023-01-27T17:47:16.870Z,102843.38
2023-01-27T17:49:44.646Z,102855.72
2023-01-27T17:52:16.842Z,102853.78
2023-01-27T17:54:44.129Z,102857.69
2023-01-27T17:57:21.530Z,102854.88
2023-01-27T17:59:57.720Z,102864.16
2023-01-27T18:02:27.639Z,102858.78
2023-01-27T18:04:55.439Z,102855.13
2023-01-27T18:07:22.309Z,102860.75
2023-01-27T18:09:53.751Z,102856.59
2023-01-27T18:12:29.832Z,102859.66
2023-01-27T18:14:56.829Z,102861.91
2023-01-27T18:17:24.945Z,102866.66
2023-01-27T18:19:53.101Z,102865.22
2023-01-27T18:22:20.617Z,102869.16
2023-01-27T18:24:52.583Z,102864.66
2023-01-27T18:27:23.084Z,102861.25
2023-01-27T18:29:53.412Z,102870.53
2023-01-27T18:32:24.369Z,102875.28
2023-01-27T18:34:53.047Z,102873.88
2023-01-27T18:37:27.599Z,102874.72
2023-01-27T18:39:55.077Z,102864.06
2023-01-27T18:42:23.258Z,102873.09
2023-01-27T18:44:50.950Z,102874.25
2023-01-27T18:47:19.711Z,102877.06
2023-01-27T18:49:51.963Z,102883.00
2023-01-27T18:52:18.967Z,102877.72
2023-01-27T18:54:45.858Z,102869.88
2023-01-27T18:57:12.934Z,102877.75
2023-01-27T18:59:39.902Z,102873.84
2023-01-27T19:02:14.535Z,102871.63
2023-01-27T19:04:42.064Z,102880.38
2023-01-27T19:07:16.766Z,102880.69
2023-01-27T19:09:44.479Z,102889.72
2023-01-27T19:12:11.960Z,102875.97
2023-01-27T19:14:39.583Z,102872.59
2023-01-27T19:17:12.172Z,102873.19
2023-01-27T19:19:39.062Z,102877.69
2023-01-27T19:22:06.002Z,102879.13
2023-01-27T19:24:33.205Z,102881.13
2023-01-27T19:27:00.114Z,102882.56
2023-01-27T19:29:27.088Z,102887.66
2023-01-27T19:31:54.014Z,102892.75
2023-01-27T19:34:21.103Z,102895.56
2023-01-27T19:36:48.258Z,102905.16
2023-01-27T19:39:18.047Z,102898.41
2023-01-27T19:41:46.427Z,102889.13
2023-01-27T19:44:13.799Z,102886.06
2023-01-27T19:46:41.004Z,102880.44
2023-01-27T19:49:11.789Z,102885.50
2023-01-27T19:51:38.682Z,102883.28
2023-01-27T19:54:05.703Z,102886.09
2023-01-27T19:56:33.579Z,102887.78
2023-01-27T19:59:00.813Z,102885.81
2023-01-27T20:01:27.899Z,102879.63
2023-01-27T20:03:55.308Z,102878.78
2023-01-27T20:06:24.059Z,102883.28
2023-01-27T20:08:55.481Z,102886.34
2023-01-27T20:11:23.755Z,102885.25
2023-01-27T20:13:50.668Z,102882.09
2023-01-27T20:16:17.522Z,102879.56
2023-01-27T20:18:44.343Z,102881.22
2023-01-27T20:21:12.622Z,102884.03
2023-01-27T20:23:39.579Z,102893.59
2023-01-27T20:26:08.314Z,102891.31
2023-01-27T20:28:35.108Z,102894.09
2023-01-27T20:31:01.971Z,102887.03
2023-01-27T20:33:28.982Z,102900.22
2023-01-27T20:35:56.028Z,102899.06
2023-01-27T20:38:23.075Z,102898.22
2023-01-27T20:40:49.900Z,102903.00
2023-01-27T20:43:26.542Z,102907.78
2023-01-27T20:46:05.658Z,102909.47
2023-01-27T20:48:33.537Z,102906.34
2023-01-27T20:51:02.613Z,102918.13
2023-01-27T20:53:33.100Z,102920.09
2023-01-27T20:56:00.518Z,102917.22
2023-01-27T20:58:27.431Z,102918.09
2023-01-27T21:00:54.362Z,102920.59
2023-01-27T21:03:22.960Z,102923.41
2023-01-27T21:05:49.785Z,102915.75
2023-01-27T21:08:16.772Z,102913.19
2023-01-27T21:10:43.635Z,102919.69
2023-01-27T21:13:10.626Z,102916.56
2023-01-27T21:15:37.534Z,102920.13
2023-01-27T21:18:04.441Z,102924.91
2023-01-27T21:20:31.322Z,102925.16
2023-01-27T21:22:58.178Z,102918.97
2023-01-27T21:25:24.998Z,102911.03
2023-01-27T21:27:51.791Z,102919.47
2023-01-27T21:30:18.604Z,102913.28
2023-01-27T21:32:45.414Z,102917.97
2023-01-27T21:35:12.852Z,102910.09
2023-01-27T21:37:40.545Z,102912.31
2023-01-27T21:40:07.746Z,102916.50
2023-01-27T21:42:44.638Z,102909.44
2023-01-27T21:45:16.693Z,102902.09
2023-01-27T21:47:43.933Z,102907.16
2023-01-27T21:50:12.387Z,102907.63
2023-01-27T21:52:42.043Z,102909.84
2023-01-27T21:55:10.312Z,102912.66
2023-01-27T21:57:37.236Z,102904.16
2023-01-27T22:00:06.834Z,102906.09
2023-01-27T22:02:33.767Z,102905.53
2023-01-27T22:05:00.590Z,102900.41
2023-01-27T22:07:28.007Z,102894.78
2023-01-27T22:09:55.154Z,102902.00
2023-01-27T22:12:23.751Z,102892.75
2023-01-27T22:14:50.671Z,102891.28
2023-01-27T22:17:19.869Z,102908.91
2023-01-27T22:19:46.971Z,102906.66
2023-01-27T22:22:14.196Z,102891.16
2023-01-27T22:24:41.213Z,102896.75
2023-01-27T22:27:08.564Z,102897.53
2023-01-27T22:29:35.409Z,102906.50
2023-01-27T22:32:02.366Z,102904.22
2023-01-27T22:34:29.152Z,102892.59
2023-01-27T22:36:56.043Z,102899.00
2023-01-27T22:39:23.736Z,102900.97
2023-01-27T22:41:50.849Z,102887.44
2023-01-27T22:44:18.286Z,102889.91
2023-01-27T22:46:45.188Z,102881.50
2023-01-27T22:49:12.075Z,102874.72
2023-01-27T22:51:39.219Z,102881.09
2023-01-27T22:54:06.214Z,102885.25
2023-01-27T22:56:33.045Z,102884.16
2023-01-27T22:59:00.667Z,102886.38
2023-01-27T23:01:27.641Z,102880.78
2023-01-27T23:03:56.181Z,102889.69
2023-01-27T23:06:23.017Z,102888.25
2023-01-27T23:08:49.806Z,102897.44
2023-01-27T23:11:16.651Z,102897.69
2023-01-27T23:13:43.684Z,102887.00
2023-01-27T23:16:11.686Z,102898.47
2023-01-27T23:18:38.828Z,102894.22
2023-01-27T23:21:06.780Z,102893.94
2023-01-27T23:23:37.219Z,102899.50
2023-01-27T23:26:06.409Z,102901.69
2023-01-27T23:28:33.657Z,102898.03
2023-01-27T23:31:00.569Z,102895.75
2023-01-27T23:33:30.662Z,102894.91
2023-01-27T23:35:57.667Z,102892.88
2023-01-27T23:38:32.473Z,102891.41
2023-01-27T23:41:01.440Z,102887.78
2023-01-27T23:43:31.134Z,102887.19
2023-01-27T23:45:57.969Z,102891.34
2023-01-27T23:48:24.952Z,102887.69
2023-01-27T23:50:52.152Z,102898.53
2023-01-27T23:53:18.977Z,102895.75
2023-01-27T23:55:54.455Z,102893.47
2023-01-27T23:58:21.407Z,102896.88
